Time;durP1;ratioP1;P1;durP2;ratioP2;P2;SDS_P1;SDS_P2;PMS_P1;PMS_P2;Temp;Humidity;BMP_temperature;BMP_pressure;BME280_temperature;BME280_humidity;BME280_pressure;Samples;Min_cycle;Max_cycle;Signal;HPM_P1;HPM_P2
2021/11/13 00:00:17;;;;;;;71.90;33.72;;;;;;;9.09;100.00;99105.25;5117198;28;20035;-93
2021/11/13 00:02:45;;;;;;;69.30;32.20;;;;;;;9.14;100.00;99118.44;5119737;27;20050;-94
2021/11/13 00:05:12;;;;;;;70.95;33.03;;;;;;;9.00;100.00;99094.75;5117011;28;20046;-93
2021/11/13 00:07:38;;;;;;;74.65;32.95;;;;;;;9.12;100.00;99109.63;5117035;28;20042;-93
2021/11/13 00:10:07;;;;;;;71.80;31.65;;;;;;;8.95;100.00;99091.31;5116303;28;20493;-93
2021/11/13 00:12:33;;;;;;;70.93;32.20;;;;;;;9.10;100.00;99124.69;5116949;28;20040;-94
2021/11/13 00:14:59;;;;;;;72.68;32.28;;;;;;;9.02;100.00;99112.41;5116763;28;20039;-93
2021/11/13 00:17:26;;;;;;;67.18;30.27;;;;;;;8.88;100.00;99095.81;5116763;27;20093;-92
2021/11/13 00:19:52;;;;;;;67.88;32.95;;;;;;;8.89;100.00;99097.59;5130258;27;20058;-94
2021/11/13 00:22:20;;;;;;;64.60;31.90;;;;;;;8.87;100.00;99095.84;5128117;27;20485;-94
2021/11/13 00:24:46;;;;;;;69.40;33.13;;;;;;;8.77;100.00;99080.06;5120611;27;20039;-93
2021/11/13 00:27:12;;;;;;;76.50;33.95;;;;;;;8.81;100.00;99091.53;5127592;27;20441;-94
2021/11/13 00:29:37;;;;;;;77.70;34.08;;;;;;;8.87;100.00;99101.13;5122267;27;20443;-93
2021/11/13 00:32:04;;;;;;;75.90;32.25;;;;;;;8.79;100.00;99083.56;5116007;28;20505;-94
2021/11/13 00:34:30;;;;;;;71.32;33.28;;;;;;;8.78;100.00;99091.53;5116405;28;20126;-93
2021/11/13 00:36:57;;;;;;;66.15;31.35;;;;;;;8.80;100.00;99103.00;5116357;28;20035;-94
2021/11/13 00:39:26;;;;;;;70.82;32.60;;;;;;;8.64;100.00;99081.16;5116475;28;20040;-94
2021/11/13 00:41:51;;;;;;;61.88;32.15;;;;;;;8.53;100.00;99069.84;5116059;28;20489;-94
2021/11/13 00:44:18;;;;;;;71.10;32.80;;;;;;;8.63;100.00;99087.34;5116237;28;20048;-94
2021/11/13 00:46:44;;;;;;;69.03;32.50;;;;;;;8.51;100.00;99083.09;5115136;28;20128;-93
2021/11/13 00:49:10;;;;;;;64.30;32.45;;;;;;;8.58;100.00;99094.50;5116004;28;20089;-92
2021/11/13 00:51:39;;;;;;;77.88;31.65;;;;;;;8.47;100.00;99076.09;5116381;28;20054;-94
2021/11/13 00:54:05;;;;;;;68.65;34.00;;;;;;;8.49;100.00;99082.25;5115978;28;20501;-94
2021/11/13 00:56:33;;;;;;;65.85;30.45;;;;;;;8.48;100.00;99076.94;5115954;28;20046;-92
2021/11/13 00:58:59;;;;;;;69.18;31.98;;;;;;;8.51;100.00;99088.41;5115743;28;20095;-94
2021/11/13 01:01:25;;;;;;;66.95;33.28;;;;;;;8.33;100.00;99056.84;5115845;27;20043;-94
2021/11/13 01:03:52;;;;;;;68.57;34.58;;;;;;;8.50;100.00;99086.66;5115733;28;20561;-94
2021/11/13 01:06:18;;;;;;;72.03;32.17;;;;;;;8.55;100.00;99094.53;5095148;28;20040;-93
2021/11/13 01:08:47;;;;;;;68.75;31.92;;;;;;;8.46;100.00;99089.34;5095524;28;20046;-92
2021/11/13 01:11:14;;;;;;;65.20;30.95;;;;;;;8.36;100.00;99070.88;5116178;27;20450;-94
2021/11/13 01:13:41;;;;;;;63.08;29.65;;;;;;;8.35;100.00;99087.69;5115191;28;20127;-94
2021/11/13 01:16:07;;;;;;;60.45;29.65;;;;;;;8.33;100.00;99092.16;5115291;28;20031;-93
2021/11/13 01:18:34;;;;;;;68.57;30.88;;;;;;;8.34;100.00;99091.22;5115348;27;20047;-94
2021/11/13 01:20:59;;;;;;;62.88;29.63;;;;;;;8.15;100.00;99079.13;5114845;28;20036;-94
2021/11/13 01:23:25;;;;;;;55.45;28.00;;;;;;;8.10;100.00;99070.34;5115474;28;20036;-93
2021/11/13 01:25:51;;;;;;;55.25;26.98;;;;;;;8.20;100.00;99096.72;5114865;28;20130;-94
2021/11/13 01:28:17;;;;;;;57.15;27.95;;;;;;;8.18;100.00;99095.84;5119354;27;20061;-93
2021/11/13 01:30:45;;;;;;;56.75;27.70;;;;;;;8.06;100.00;99079.22;5115178;28;20035;-93
2021/11/13 01:33:10;;;;;;;64.57;27.90;;;;;;;8.03;100.00;99088.97;5135281;27;20042;-93
2021/11/13 01:35:37;;;;;;;57.95;25.75;;;;;;;7.83;100.00;99067.16;5121454;27;20103;-93
2021/11/13 01:38:03;;;;;;;56.47;27.02;;;;;;;7.89;100.00;99082.06;5115264;28;20039;-93
2021/11/13 01:40:29;;;;;;;54.50;26.83;;;;;;;7.95;100.00;99090.81;5115306;28;20334;-94
2021/11/13 01:42:56;;;;;;;53.70;27.33;;;;;;;7.95;100.00;99098.75;5115559;28;20163;-93
2021/11/13 01:45:23;;;;;;;57.10;27.08;;;;;;;7.94;100.00;99090.84;5114330;28;20501;-95
2021/11/13 01:47:51;;;;;;;52.38;26.42;;;;;;;7.82;100.00;99078.63;5114647;28;20477;-93
2021/11/13 01:50:21;;;;;;;58.97;27.00;;;;;;;7.90;100.00;99091.78;5115511;28;20048;-94
2021/11/13 01:52:50;;;;;;;53.45;26.30;;;;;;;7.85;100.00;99086.53;5115011;28;20052;-94
2021/11/13 01:55:17;;;;;;;50.13;26.55;;;;;;;7.88;100.00;99086.50;5115091;28;20047;-92
2021/11/13 01:57:45;;;;;;;61.95;26.88;;;;;;;8.00;100.00;99098.72;5114902;28;20042;-93
2021/11/13 02:00:16;;;;;;;107.65;32.05;;;;;;;7.98;100.00;99085.50;5115008;28;20072;-93
2021/11/13 02:02:42;;;;;;;130.38;33.08;;;;;;;8.08;100.00;99101.28;5115039;28;20118;-93
2021/11/13 02:05:09;;;;;;;109.43;31.38;;;;;;;7.93;100.00;99067.91;5114733;28;20126;-93
2021/11/13 02:07:35;;;;;;;65.97;30.60;;;;;;;7.94;100.00;99085.56;5114599;28;20040;-93
2021/11/13 02:10:02;;;;;;;62.00;29.85;;;;;;;8.05;100.00;99093.38;5114641;28;20042;-93
2021/11/13 02:12:28;;;;;;;62.85;29.50;;;;;;;8.00;100.00;99077.53;5114853;28;20036;-93
2021/11/13 02:14:54;;;;;;;84.03;30.75;;;;;;;8.07;100.00;99073.94;5114547;28;20089;-94
2021/11/13 02:17:20;;;;;;;67.65;29.40;;;;;;;8.13;100.00;99070.31;5114876;28;20043;-93
2021/11/13 02:19:50;;;;;;;66.50;28.75;;;;;;;8.26;100.00;99071.91;5114817;28;20072;-93
2021/11/13 02:22:16;;;;;;;65.93;29.45;;;;;;;8.34;100.00;99072.69;5114499;28;20047;-94
2021/11/13 02:24:44;;;;;;;87.85;30.73;;;;;;;8.29;100.00;99066.56;5114437;28;20122;-95
2021/11/13 02:27:09;;;;;;;200.07;33.75;;;;;;;8.38;100.00;99070.88;5114434;28;20493;-94
2021/11/13 02:29:36;;;;;;;114.68;31.95;;;;;;;8.34;100.00;99063.88;5114487;28;20081;-94
2021/11/13 02:32:02;;;;;;;140.80;31.27;;;;;;;8.43;100.00;99069.94;5114250;28;20054;-93
2021/11/13 02:34:28;;;;;;;216.98;31.48;;;;;;;8.56;100.00;99083.03;5117610;28;20043;-93
2021/11/13 02:36:57;;;;;;;212.55;33.33;;;;;;;8.47;100.00;99069.91;5118914;28;20102;-93
2021/11/13 02:39:23;;;;;;;115.87;29.37;;;;;;;8.49;100.00;99073.41;5118537;28;20032;-93
2021/11/13 02:41:49;;;;;;;96.25;27.67;;;;;;;8.51;100.00;99079.56;5118253;28;20272;-94
2021/11/13 02:44:17;;;;;;;119.55;29.83;;;;;;;8.50;100.00;99069.84;5118164;28;20043;-92
2021/11/13 02:46:43;;;;;;;115.45;28.00;;;;;;;8.49;100.00;99076.94;5117863;28;20139;-94
2021/11/13 02:49:10;;;;;;;93.05;28.40;;;;;;;8.48;100.00;99077.84;5118397;28;20043;-93
2021/11/13 02:51:37;;;;;;;86.70;26.20;;;;;;;8.27;100.00;99054.25;5118562;28;20106;-92
2021/11/13 02:54:04;;;;;;;75.63;26.67;;;;;;;8.38;100.00;99085.00;5118673;28;20040;-94
2021/11/13 02:56:34;;;;;;;60.90;26.17;;;;;;;8.22;100.00;99078.16;5118256;28;20041;-94
2021/11/13 02:59:00;;;;;;;77.72;26.75;;;;;;;8.14;100.00;99080.88;5118140;28;20493;-93
2021/11/13 03:01:26;;;;;;;75.22;26.63;;;;;;;8.05;100.00;99067.78;5117693;28;20042;-92
2021/11/13 03:03:55;;;;;;;47.17;22.40;;;;;;;7.99;100.00;99071.34;5118377;28;20043;-94
2021/11/13 03:06:21;;;;;;;;;;;;;;;7.99;100.00;99089.03;5118344;28;20047;-94
2021/11/13 03:08:50;;;;;;;50.22;23.70;;;;;;;7.78;100.00;99069.81;5118050;28;20280;-93
2021/11/13 03:11:19;;;;;;;59.83;23.45;;;;;;;7.88;100.00;99081.19;5117696;28;20074;-94
2021/11/13 03:13:48;;;;;;;66.68;24.90;;;;;;;7.78;100.00;99059.22;5117883;27;20501;-93
2021/11/13 03:16:18;;;;;;;;;;;;;;;7.97;100.00;99086.38;5118048;28;20039;-92
2021/11/13 03:18:44;;;;;;;89.55;24.40;;;;;;;7.86;100.00;99067.09;5117932;28;19923;-93
2021/11/13 03:21:11;;;;;;;128.05;25.55;;;;;;;7.80;100.00;99051.28;5117816;28;20100;-93
2021/11/13 03:23:40;;;;;;;150.05;26.80;;;;;;;7.82;100.00;99071.53;5119550;27;20059;-95
2021/11/13 03:26:08;;;;;;;92.38;25.27;;;;;;;7.68;100.00;99056.72;5117366;28;20043;-93
2021/11/13 03:28:38;;;;;;;58.13;23.88;;;;;;;7.72;100.00;99059.31;5118582;27;20038;-93
2021/11/13 03:31:04;;;;;;;83.10;24.98;;;;;;;7.75;100.00;99063.69;5128372;27;20039;-93
2021/11/13 03:33:32;;;;;;;57.67;24.05;;;;;;;7.72;100.00;99066.38;5117649;28;20054;-94
2021/11/13 03:36:00;;;;;;;45.25;19.95;;;;;;;7.72;100.00;99069.91;5118311;28;20066;-94
2021/11/13 03:38:30;;;;;;;38.20;18.15;;;;;;;7.60;100.00;99070.91;5118021;28;20040;-93
2021/11/13 03:40:57;;;;;;;43.97;20.52;;;;;;;7.57;100.00;99070.06;5117212;28;20045;-93
2021/11/13 03:43:23;;;;;;;53.97;21.58;;;;;;;7.45;100.00;99049.88;5117788;28;20508;-93
2021/11/13 03:45:52;;;;;;;56.08;22.27;;;;;;;7.50;100.00;99053.34;5128612;27;20493;-93
2021/11/13 03:48:18;;;;;;;67.60;23.40;;;;;;;7.63;100.00;99062.03;5137532;27;20043;-93
2021/11/13 03:50:46;;;;;;;127.65;24.95;;;;;;;7.61;100.00;99058.53;5126280;27;20039;-93
2021/11/13 03:53:13;;;;;;;198.88;27.00;;;;;;;7.66;100.00;99064.69;5117221;28;20100;-93
2021/11/13 03:55:41;;;;;;;227.13;27.98;;;;;;;7.69;100.00;99071.69;5117094;28;20044;-93
2021/11/13 03:58:07;;;;;;;309.90;29.85;;;;;;;7.53;100.00;99057.75;5117474;28;20088;-92
2021/11/13 04:00:33;;;;;;;319.77;33.80;;;;;;;7.51;100.00;99052.47;5116580;28;20400;-93
2021/11/13 04:03:01;;;;;;;267.40;30.95;;;;;;;7.61;100.00;99062.09;5116726;28;20043;-93
2021/11/13 04:05:27;;;;;;;181.45;24.42;;;;;;;7.55;100.00;99051.56;5116736;28;20071;-93
2021/11/13 04:07:52;;;;;;;325.77;30.80;;;;;;;7.63;100.00;99071.75;5118418;28;20043;-94
2021/11/13 04:10:19;;;;;;;443.58;34.90;;;;;;;7.66;100.00;99062.03;5129898;27;20408;-93
2021/11/13 04:12:45;;;;;;;69.93;17.13;;;;;;;7.57;100.00;99048.91;5133148;27;20038;-93
2021/11/13 04:15:13;;;;;;;115.63;19.13;;;;;;;7.58;100.00;99054.16;5116898;28;20126;-94
2021/11/13 04:17:39;;;;;;;139.43;19.40;;;;;;;7.54;100.00;99048.91;5118069;28;20535;-93
2021/11/13 04:20:09;;;;;;;190.98;22.42;;;;;;;7.65;100.00;99065.56;5122178;28;20040;-93
2021/11/13 04:22:36;;;;;;;47.45;16.48;;;;;;;7.46;100.00;99041.06;5120325;28;20032;-94
2021/11/13 04:25:03;;;;;;;100.50;19.48;;;;;;;7.57;100.00;99070.06;5120383;28;20043;-93
2021/11/13 04:27:29;;;;;;;79.28;17.73;;;;;;;7.50;100.00;99055.13;5119728;28;20032;-92
2021/11/13 04:29:55;;;;;;;66.35;16.98;;;;;;;7.47;100.00;99032.22;5120084;28;20043;-93
2021/11/13 04:32:21;;;;;;;64.13;19.27;;;;;;;7.56;100.00;99039.19;5118807;28;20051;-94
2021/11/13 04:37:32;;;;;;;73.03;19.23;;;;;;;7.80;100.00;99068.03;5115626;27;20374;-94
2021/11/13 04:39:58;;;;;;;65.18;20.58;;;;;;;7.74;100.00;99043.41;5115194;28;20135;-92
2021/11/13 04:42:24;;;;;;;68.63;20.55;;;;;;;7.91;100.00;99064.41;5114751;28;20043;-93
2021/11/13 04:44:50;;;;;;;49.75;20.42;;;;;;;7.94;100.00;99053.78;5113945;28;20044;-92
2021/11/13 04:47:17;;;;;;;40.88;19.75;;;;;;;7.98;100.00;99058.13;5113635;28;20424;-92
2021/11/13 04:49:43;;;;;;;47.42;22.05;;;;;;;7.99;100.00;99081.94;5113876;28;20048;-92
2021/11/13 04:52:10;;;;;;;41.97;20.30;;;;;;;8.02;100.00;99081.94;5114652;28;20088;-93
2021/11/13 04:54:37;;;;;;;47.20;20.42;;;;;;;7.98;100.00;99066.06;5112017;28;20088;-93
2021/11/13 04:57:06;;;;;;;38.53;19.15;;;;;;;7.93;100.00;99042.28;5114277;28;20040;-93
2021/11/13 04:59:32;;;;;;;41.90;20.10;;;;;;;8.09;100.00;99073.88;5114906;28;20130;-94
2021/11/13 05:01:59;;;;;;;42.17;19.45;;;;;;;8.04;100.00;99063.34;5114252;28;20130;-93
2021/11/13 05:04:26;;;;;;;41.65;18.42;;;;;;;8.02;100.00;99039.56;5112117;28;20042;-93
2021/11/13 05:06:52;;;;;;;40.15;19.40;;;;;;;8.19;100.00;99068.44;5114728;28;20047;-93
2021/11/13 05:09:18;;;;;;;37.58;19.15;;;;;;;8.03;100.00;99038.66;5114073;28;20040;-93
2021/11/13 05:11:47;;;;;;;39.38;20.15;;;;;;;8.24;100.00;99065.78;5113806;28;20039;-94
2021/11/13 05:14:13;;;;;;;39.85;19.70;;;;;;;8.20;100.00;99051.69;5098842;28;20048;-94
2021/11/13 05:16:39;;;;;;;43.80;20.05;;;;;;;8.33;100.00;99060.34;5113292;28;20497;-93
2021/11/13 05:19:08;;;;;;;44.22;18.75;;;;;;;8.23;100.00;99042.81;5113150;28;20126;-92
2021/11/13 05:21:34;;;;;;;;;;;;;;;8.35;100.00;99057.66;5111880;28;20587;-93
2021/11/13 05:24:00;;;;;;;39.10;14.70;;;;;;;8.40;100.00;99053.19;5111278;28;20010;-92
2021/11/13 05:26:25;;;;;;;40.40;14.95;;;;;;;8.42;100.00;99049.66;5112238;28;20046;-93
2021/11/13 05:28:53;;;;;;;50.05;16.85;;;;;;;8.42;100.00;99052.28;5111839;28;20074;-93
2021/11/13 05:31:19;;;;;;;47.67;17.10;;;;;;;8.40;100.00;99055.84;5110835;28;20048;-93
2021/11/13 05:33:44;;;;;;;42.80;17.50;;;;;;;8.39;100.00;99048.75;5111474;28;20112;-93
2021/11/13 05:36:10;;;;;;;51.90;21.90;;;;;;;8.32;100.00;99047.97;5111112;28;20058;-93
2021/11/13 05:38:37;;;;;;;45.75;20.75;;;;;;;8.22;100.00;99049.03;5111274;28;20432;-92
2021/11/13 05:41:03;;;;;;;57.83;21.02;;;;;;;8.12;100.00;99034.13;5111151;28;20119;-93
2021/11/13 05:43:29;;;;;;;58.88;20.85;;;;;;;8.21;100.00;99052.53;5111459;28;20515;-93
2021/11/13 05:45:56;;;;;;;53.90;20.95;;;;;;;8.22;100.00;99054.31;5110474;28;20042;-93
2021/11/13 05:48:22;;;;;;;71.32;21.65;;;;;;;8.17;100.00;99046.41;5099733;28;20072;-95
2021/11/13 05:50:48;;;;;;;47.88;19.17;;;;;;;8.18;100.00;99047.31;5097993;28;20443;-94
2021/11/13 05:53:14;;;;;;;49.03;19.77;;;;;;;8.29;100.00;99055.97;5097888;28;20040;-93
2021/11/13 05:55:40;;;;;;;43.20;18.08;;;;;;;8.27;100.00;99043.66;5097489;28;20036;-93
2021/11/13 05:58:07;;;;;;;44.30;17.70;;;;;;;8.20;100.00;99033.13;5097456;28;20271;-93
2021/11/13 06:00:34;;;;;;;49.58;17.75;;;;;;;8.25;100.00;99041.03;5097216;28;20055;-93
2021/11/13 06:03:02;;;;;;;45.35;18.27;;;;;;;8.31;100.00;99053.31;5097234;28;20397;-93
2021/11/13 06:05:28;;;;;;;53.40;19.17;;;;;;;8.32;100.00;99068.31;5097400;28;20036;-94
2021/11/13 06:07:54;;;;;;;46.55;18.38;;;;;;;8.27;100.00;99054.25;5097284;28;20063;-93
2021/11/13 06:10:20;;;;;;;55.20;18.65;;;;;;;8.36;100.00;99072.66;5097138;28;20040;-93
2021/11/13 06:12:46;;;;;;;59.30;18.90;;;;;;;8.34;100.00;99072.69;5097676;28;20044;-94
2021/11/13 06:15:13;;;;;;;48.92;19.33;;;;;;;8.32;100.00;99065.66;5096439;28;20040;-93
2021/11/13 06:17:39;;;;;;;55.53;18.67;;;;;;;8.30;100.00;99056.84;5097038;28;20075;-93
2021/11/13 06:20:08;;;;;;;48.05;17.90;;;;;;;8.37;100.00;99070.00;5097130;28;20512;-93
2021/11/13 06:22:35;;;;;;;57.38;18.67;;;;;;;8.34;100.00;99070.03;5097229;28;20044;-94
2021/11/13 06:25:01;;;;;;;54.40;18.17;;;;;;;8.35;100.00;99079.75;5097022;28;20054;-93
2021/11/13 06:27:26;;;;;;;50.80;18.85;;;;;;;8.31;100.00;99064.78;5096916;28;20588;-93
2021/11/13 06:29:52;;;;;;;44.60;18.98;;;;;;;8.45;100.00;99072.56;5096747;28;20105;-93
2021/11/13 06:32:18;;;;;;;53.60;18.23;;;;;;;8.54;100.00;99090.13;5085480;28;20147;-93
2021/11/13 06:34:44;;;;;;;51.65;18.05;;;;;;;8.46;100.00;99079.66;5076652;28;20045;-94
2021/11/13 06:37:11;;;;;;;58.25;18.42;;;;;;;8.51;100.00;99090.19;5076005;28;20509;-93
2021/11/13 06:39:38;;;;;;;62.95;19.15;;;;;;;8.68;100.00;99112.03;5091992;28;20071;-93
2021/11/13 06:42:04;;;;;;;42.65;17.80;;;;;;;8.74;100.00;99114.59;5096933;28;20461;-93
2021/11/13 06:44:31;;;;;;;44.05;17.92;;;;;;;8.79;100.00;99110.09;5096470;28;20048;-93
2021/11/13 06:46:57;;;;;;;46.85;16.17;;;;;;;8.82;100.00;99114.47;5095738;28;20048;-93
2021/11/13 06:49:23;;;;;;;44.47;16.38;;;;;;;8.58;100.00;99094.50;5096319;28;20497;-93
2021/11/13 06:51:49;;;;;;;55.75;18.40;;;;;;;8.61;100.00;99105.94;5096315;28;20051;-93
2021/11/13 06:54:16;;;;;;;51.80;17.85;;;;;;;8.67;100.00;99117.34;5096603;28;20438;-93
2021/11/13 06:56:42;;;;;;;69.75;16.73;;;;;;;8.68;100.00;99121.75;5096849;28;20225;-94
2021/11/13 06:59:09;;;;;;;75.80;18.77;;;;;;;8.70;100.00;99114.66;5095293;28;20553;-93
2021/11/13 07:01:35;;;;;;;56.95;18.38;;;;;;;8.82;100.00;99119.78;5096097;28;20052;-93
2021/11/13 07:04:00;;;;;;;82.78;17.92;;;;;;;8.74;100.00;99100.44;5096383;28;20443;-93
2021/11/13 07:06:27;;;;;;;87.15;18.65;;;;;;;8.92;100.00;99120.53;5096372;28;20074;-94
2021/11/13 07:08:53;;;;;;;110.70;19.95;;;;;;;8.85;100.00;99106.50;5096207;28;20497;-93
2021/11/13 07:11:20;;;;;;;126.85;18.63;;;;;;;8.89;100.00;99124.13;5096213;28;20512;-93
2021/11/13 07:13:46;;;;;;;94.45;17.67;;;;;;;8.96;100.00;99122.25;5096472;28;20039;-94
2021/11/13 07:16:12;;;;;;;42.78;15.25;;;;;;;9.08;100.00;99121.16;5096022;28;20058;-95
2021/11/13 07:18:38;;;;;;;77.78;17.15;;;;;;;9.01;100.00;99099.16;5095798;28;20090;-94
2021/11/13 07:21:06;;;;;;;126.93;17.45;;;;;;;9.22;100.00;99112.09;5096552;28;20044;-93
2021/11/13 07:23:33;;;;;;;110.32;16.70;;;;;;;9.18;100.00;99125.44;5097445;28;20048;-94
2021/11/13 07:26:01;;;;;;;81.50;14.68;;;;;;;9.18;100.00;99118.34;5096345;28;20115;-94
2021/11/13 07:31:28;;;;;;;150.15;17.45;;;;;;;9.07;100.00;99117.66;5105279;27;20340;-92
2021/11/13 07:33:54;;;;;;;152.40;19.33;;;;;;;8.99;100.00;99106.28;5072510;28;20055;-93
2021/11/13 07:36:21;;;;;;;41.40;14.05;;;;;;;9.00;100.00;99108.91;5072728;28;20075;-94
2021/11/13 07:38:47;;;;;;;211.90;20.50;;;;;;;9.27;100.00;99117.31;5072856;28;20494;-93
2021/11/13 07:41:14;;;;;;;95.45;19.42;;;;;;;9.21;100.00;99109.47;5073270;28;20048;-93
2021/11/13 07:43:40;;;;;;;51.80;16.48;;;;;;;9.22;100.00;99098.84;5072998;28;20098;-93
2021/11/13 07:46:07;;;;;;;145.82;19.92;;;;;;;9.45;100.00;99130.31;5072887;28;20131;-93
2021/11/13 07:48:35;;;;;;;91.40;17.17;;;;;;;9.37;100.00;99102.16;5072400;28;20072;-93
2021/11/13 07:51:01;;;;;;;112.75;18.98;;;;;;;9.36;100.00;99114.50;5072446;28;20029;-94
2021/11/13 07:53:27;;;;;;;105.53;18.67;;;;;;;9.33;100.00;99127.84;5072952;28;20132;-93
2021/11/13 07:55:53;;;;;;;45.70;16.58;;;;;;;9.37;100.00;99115.41;5072510;28;20068;-93
2021/11/13 07:58:19;;;;;;;152.80;18.30;;;;;;;9.50;100.00;99131.97;5072286;28;20065;-93
2021/11/13 08:00:47;;;;;;;127.63;18.02;;;;;;;9.30;100.00;99127.00;5072274;28;20037;-93
2021/11/13 08:03:13;;;;;;;80.13;15.93;;;;;;;9.19;100.00;99112.13;5072452;28;20045;-93
2021/11/13 08:05:41;;;;;;;68.43;16.38;;;;;;;9.35;100.00;99118.09;5072744;28;20037;-92
2021/11/13 08:08:07;;;;;;;76.60;15.38;;;;;;;9.58;100.00;99138.03;5072340;28;20127;-92
2021/11/13 08:13:36;;;;;;;48.17;15.73;;;;;;;9.73;100.00;99137.78;5134098;27;20380;-92
2021/11/13 08:16:03;;;;;;;67.50;16.45;;;;;;;9.64;100.00;99122.00;5132586;27;20047;-94
2021/11/13 08:18:29;;;;;;;47.08;15.05;;;;;;;9.64;100.00;99146.78;5133580;27;20039;-95
2021/11/13 08:20:59;;;;;;;68.63;18.92;;;;;;;9.56;100.00;99118.59;5134762;27;20401;-94
2021/11/13 08:23:25;;;;;;;135.65;19.85;;;;;;;9.55;100.00;99117.75;5131592;27;20044;-93
2021/11/13 08:25:52;;;;;;;138.25;20.55;;;;;;;9.55;100.00;99125.72;5132695;27;20066;-94
2021/11/13 08:28:19;;;;;;;201.82;21.52;;;;;;;9.72;100.00;99127.19;5133331;27;20497;-94
2021/11/13 08:30:47;;;;;;;59.58;17.67;;;;;;;9.77;100.00;99128.84;5132169;27;20040;-92
2021/11/13 08:33:13;;;;;;;134.32;20.50;;;;;;;9.82;100.00;99134.06;5132736;27;20404;-93
2021/11/13 08:35:43;;;;;;;82.10;16.98;;;;;;;9.91;100.00;99152.53;5133596;27;20047;-92
2021/11/13 08:38:11;;;;;;;74.07;22.58;;;;;;;9.96;100.00;99133.84;5132109;28;20050;-94
2021/11/13 08:40:37;;;;;;;63.50;21.70;;;;;;;10.05;100.00;99139.84;5133330;27;20050;-94
2021/11/13 08:43:03;;;;;;;129.88;19.23;;;;;;;9.88;99.54;99133.97;5134124;27;20134;-94
2021/11/13 08:45:30;;;;;;;239.88;20.45;;;;;;;9.80;99.46;99144.75;5135240;27;20062;-95
2021/11/13 08:47:57;;;;;;;226.25;23.30;;;;;;;9.54;100.00;99126.63;5135344;28;20051;-95
2021/11/13 08:50:29;;;;;;;80.55;16.48;;;;;;;9.46;100.00;99121.44;5135037;27;20043;-95
2021/11/13 08:52:57;;;;;;;228.55;21.95;;;;;;;9.37;100.00;99115.41;5134743;27;20467;-94
2021/11/13 08:55:25;;;;;;;153.57;19.70;;;;;;;9.36;100.00;99113.66;5134716;27;20450;-94
2021/11/13 08:57:53;;;;;;;121.53;16.83;;;;;;;9.77;100.00;99138.59;5135004;27;20055;-94
2021/11/13 09:00:24;;;;;;;167.30;20.52;;;;;;;9.72;98.81;99114.78;5134268;27;20495;-95
2021/11/13 09:02:50;;;;;;;50.47;19.70;;;;;;;9.77;100.00;99118.22;5135377;27;20043;-94
2021/11/13 09:05:18;;;;;;;126.03;22.85;;;;;;;10.06;100.00;99136.28;5132967;27;20072;-92
2021/11/13 09:07:44;;;;;;;118.38;18.50;;;;;;;10.00;98.42;99101.88;5133439;27;20043;-94
2021/11/13 09:10:11;;;;;;;120.85;20.75;;;;;;;9.79;100.00;99120.88;5134659;27;20047;-94
2021/11/13 09:12:37;;;;;;;111.40;17.98;;;;;;;9.53;100.00;99111.56;5133675;27;20058;-93
2021/11/13 09:15:08;;;;;;;58.35;16.33;;;;;;;9.62;100.00;99126.47;5133394;27;20047;-94
2021/11/13 09:17:34;;;;;;;92.97;18.13;;;;;;;9.75;100.00;99103.22;5134453;27;20070;-93
2021/11/13 09:20:00;;;;;;;50.88;16.52;;;;;;;10.05;100.00;99118.59;5133024;27;20066;-95
2021/11/13 09:22:27;;;;;;;79.20;18.50;;;;;;;10.10;98.54;99109.66;5133196;27;20049;-96
2021/11/13 09:24:53;;;;;;;108.53;20.95;;;;;;;9.72;99.19;99103.31;5119884;27;20481;-94
2021/11/13 09:27:19;;;;;;;86.03;18.30;;;;;;;9.88;100.00;99118.03;5119288;28;20044;-94
2021/11/13 09:29:45;;;;;;;244.35;25.83;;;;;;;9.86;100.00;99133.13;5118627;27;20456;-95
2021/11/13 09:32:11;;;;;;;96.90;18.40;;;;;;;9.81;100.00;99127.03;5118344;28;20066;-92
2021/11/13 09:34:37;;;;;;;162.65;22.90;;;;;;;9.38;100.00;99127.78;5118013;27;20043;-95
2021/11/13 09:37:03;;;;;;;199.93;25.95;;;;;;;9.30;100.00;99132.31;5118361;28;20036;-94
2021/11/13 09:39:31;;;;;;;104.03;20.17;;;;;;;9.45;100.00;99130.31;5119614;28;20100;-96
2021/11/13 09:42:00;;;;;;;133.38;23.38;;;;;;;9.49;100.00;99132.91;5120533;28;20038;-94
2021/11/13 09:44:27;;;;;;;49.80;18.85;;;;;;;9.65;100.00;99111.38;5121700;28;20044;-95
2021/11/13 09:46:59;;;;;;;86.93;20.50;;;;;;;9.95;100.00;99109.03;5123061;28;20051;-95
2021/11/13 09:49:29;;;;;;;58.10;21.27;;;;;;;10.41;100.00;99136.50;5121658;28;20520;-95
2021/11/13 09:51:55;;;;;;;54.13;21.98;;;;;;;10.43;100.00;99092.16;5120997;28;20063;-95
2021/11/13 09:54:22;;;;;;;105.38;25.55;;;;;;;10.57;97.13;99106.03;5120838;28;20066;-95
2021/11/13 09:56:49;;;;;;;65.38;29.23;;;;;;;10.86;97.94;99126.69;5121181;28;20096;-95
2021/11/13 09:59:16;;;;;;;50.90;21.17;;;;;;;10.95;97.41;99098.09;5118941;28;20052;-94
2021/11/13 10:01:42;;;;;;;46.70;18.88;;;;;;;11.22;93.65;99113.44;5120940;28;20054;-96
2021/11/13 10:04:08;;;;;;;55.97;24.60;;;;;;;11.21;94.42;99086.84;5120274;28;20459;-95
2021/11/13 10:06:35;;;;;;;67.82;31.25;;;;;;;11.43;94.39;99101.38;5120120;28;20416;-96
2021/11/13 10:09:01;;;;;;;78.75;35.38;;;;;;;11.47;93.13;99089.75;5120000;28;20052;-95
2021/11/13 10:11:28;;;;;;;68.50;30.60;;;;;;;11.56;92.81;99101.03;5118861;28;20058;-95
2021/11/13 10:13:57;;;;;;;49.83;22.35;;;;;;;11.71;93.09;99111.34;5118303;27;20126;-94
2021/11/13 10:16:30;;;;;;;52.53;22.92;;;;;;;11.71;91.67;99090.88;5117568;28;20046;-95
2021/11/13 10:18:57;;;;;;;41.58;17.60;;;;;;;11.81;89.83;99090.63;5117492;28;20517;-95
2021/11/13 10:21:25;;;;;;;39.97;17.92;;;;;;;11.87;90.06;99087.81;5117323;28;20047;-95
2021/11/13 10:23:53;;;;;;;46.63;19.02;;;;;;;11.91;90.15;99084.19;5121612;27;20459;-95
2021/11/13 10:26:23;;;;;;;45.15;20.58;;;;;;;12.02;89.42;99089.22;5137495;27;20047;-96
2021/11/13 10:28:53;;;;;;;62.70;25.25;;;;;;;12.01;89.18;99068.78;5123309;27;20071;-95
2021/11/13 10:31:23;;;;;;;131.85;80.35;;;;;;;12.07;88.57;99088.16;5117849;28;20444;-96
2021/11/13 10:33:52;;;;;;;54.50;24.17;;;;;;;11.92;89.52;99059.25;5116748;28;20043;-95
2021/11/13 10:36:26;;;;;;;47.28;20.30;;;;;;;12.05;89.36;99068.66;5115778;28;20048;-95
2021/11/13 10:38:58;;;;;;;52.63;24.65;;;;;;;12.10;89.02;99060.53;5116855;27;20043;-95
2021/11/13 10:41:24;;;;;;;52.30;22.38;;;;;;;12.32;87.82;99068.81;5117080;28;20048;-95
2021/11/13 10:43:50;;;;;;;68.35;35.60;;;;;;;12.43;87.08;99077.34;5117253;28;20043;-95
2021/11/13 10:46:18;;;;;;;48.65;20.88;;;;;;;12.45;87.69;99070.19;5116540;28;20088;-95
2021/11/13 10:48:47;;;;;;;92.75;46.70;;;;;;;12.36;87.27;99054.47;5116403;28;20044;-95
2021/11/13 10:51:15;;;;;;;48.72;23.58;;;;;;;12.32;86.65;99053.66;5117966;28;20046;-95
2021/11/13 10:53:44;;;;;;;46.70;21.65;;;;;;;12.37;86.74;99050.00;5117766;28;20040;-95
2021/11/13 10:56:14;;;;;;;52.35;21.58;;;;;;;12.32;86.89;99043.00;5117563;27;20043;-95
2021/11/13 10:58:44;;;;;;;53.88;23.25;;;;;;;12.32;87.54;99066.13;5116574;28;20050;-96
2021/11/13 11:01:24;;;;;;;53.13;23.98;;;;;;;12.23;88.13;99045.94;5116298;28;20055;-96
2021/11/13 11:03:58;;;;;;;53.63;24.52;;;;;;;12.36;88.72;99058.91;5116013;28;20058;-94
2021/11/13 11:06:25;;;;;;;51.85;24.85;;;;;;;12.39;88.07;99042.81;5115797;28;20170;-95
2021/11/13 11:08:52;;;;;;;65.28;30.48;;;;;;;12.45;86.33;99019.50;5116187;28;20040;-95
2021/11/13 11:11:27;;;;;;;83.13;42.88;;;;;;;12.50;85.74;99052.25;5118824;27;20043;-96
2021/11/13 11:13:55;;;;;;;58.88;26.73;;;;;;;12.46;87.69;99029.25;5115738;28;20040;-94
2021/11/13 11:16:27;;;;;;;52.60;24.00;;;;;;;12.39;87.62;99032.16;5140877;27;20053;-96
2021/11/13 11:18:55;;;;;;;52.45;23.40;;;;;;;12.38;87.22;99019.72;5157273;27;20040;-95
2021/11/13 11:21:39;;;;;;;60.22;26.33;;;;;;;12.40;85.46;99010.75;5157035;27;20102;-95
2021/11/13 11:24:10;;;;;;;53.60;25.15;;;;;;;12.56;86.29;99019.19;5157033;27;20377;-95